CDT,Max TemperatureF,Mean TemperatureF,Min TemperatureF,Max Dew PointF,MeanDew PointF,Min DewpointF,Max Humidity, Mean Humidity, Min Humidity, Max Sea Level PressureIn, Mean Sea Level PressureIn, Min Sea Level PressureIn, Max VisibilityMiles, Mean VisibilityMiles, Min VisibilityMiles, Max Wind SpeedMPH, Mean Wind SpeedMPH, Max Gust SpeedMPH,PrecipitationIn, CloudCover, Events, WindDirDegrees
2013-3-1,39,36,33,32,30,28,93,78,70,30.11,30.07,30.04,10,9,2,13,7,24,0.00,8,Snow,299
2013-3-2,35,32,30,31,28,25,92,81,70,30.18,30.11,30.04,10,8,3,14,10,18,0.01,8,Snow,312
2013-3-3,43,34,26,25,20,16,85,60,34,30.20,30.16,30.12,10,10,10,14,9,21,0.00,2,,308
2013-3-4,60,46,32,43,30,24,82,53,32,30.17,30.04,29.91,10,10,10,16,6,24,0.00,2,,142
2013-3-5,57,48,35,55,46,20,94,83,54,30.08,29.86,29.71,10,8,0,29,15,43,0.68,8,Fog-Rain-Thunderstorm,243
2013-3-6,43,36,30,28,25,19,82,64,53,30.31,30.23,30.09,10,10,10,18,13,25,0.00,5,,323
2013-3-7,39,33,27,29,26,24,89,81,67,30.38,30.34,30.30,10,9,7,12,3,,0.00,1,,2
2013-3-8,61,44,28,31,27,23,89,60,23,30.34,30.30,30.27,10,9,8,6,5,,0.00,0,,39
2013-3-9,66,52,37,37,33,28,79,47,30,30.25,30.17,30.08,10,10,10,16,5,22,0.00,0,,133
2013-3-10,72,62,52,50,42,34,60,46,36,30.09,29.97,29.86,10,10,9,25,13,39,0.00,2,Rain-Thunderstorm,151
2013-3-11,64,52,39,54,45,32,100,88,50,30.00,29.88,29.82,10,6,2,23,11,31,1.29,8,Rain,255
2013-3-12,55,42,30,33,30,27,92,63,41,30.19,30.11,30.01,10,10,10,14,7,16,0.00,0,,302
2013-3-13,51,43,33,31,25,18,79,53,28,30.40,30.29,30.18,10,10,10,20,8,26,0.00,0,,308
2013-3-14,55,40,27,34,22,16,78,52,24,30.47,30.37,30.25,10,10,10,10,3,,0.00,2,,29
2013-3-15,75,56,36,45,38,27,76,49,32,30.25,30.08,29.96,10,10,10,20,7,26,0.02,0,,206
2013-3-16,75,64,52,49,44,41,83,51,34,29.98,29.92,29.86,10,10,10,16,9,23,0.00,0,,227
2013-3-17,72,62,52,54,49,45,84,67,41,29.98,29.90,29.83,10,10,10,16,8,25,0.00,1,,188
2013-3-18,64,58,48,61,56,44,96,87,72,29.97,29.82,29.75,10,8,1,23,14,36,0.23,6,Rain-Thunderstorm,213
2013-3-19,62,47,33,42,34,19,100,66,26,30.17,30.11,30.00,10,8,0,10,5,,0.00,1,Fog,355
2013-3-20,57,47,37,33,26,19,79,48,28,30.19,30.10,30.01,10,10,10,20,6,30,0.00,2,,317
2013-3-21,48,36,25,29,19,12,73,50,26,30.13,30.04,29.97,10,10,10,12,6,18,0.00,1,,6
2013-3-22,48,42,37,38,33,27,82,66,54,30.05,30.00,29.96,10,10,10,12,4,,0.01,8,Rain,118
2013-3-23,54,49,44,51,46,39,100,92,80,29.95,29.87,29.69,9,5,2,15,6,,1.51,8,Rain-Thunderstorm,83
2013-3-24,60,49,39,55,46,25,97,80,55,29.82,29.61,29.50,10,8,2,28,13,44,0.49,8,Rain,234
2013-3-25,39,36,34,26,23,22,70,60,53,30.18,30.02,29.84,10,10,8,22,18,37,0.00,8,Snow,293
2013-3-26,41,36,30,28,26,24,82,66,55,30.37,30.28,30.17,10,10,10,14,10,23,0.00,7,,308
2013-3-27,53,40,28,32,27,23,85,63,37,30.43,30.36,30.31,10,10,10,12,2,,0.00,1,,302
2013-3-28,61,45,30,35,31,28,92,62,32,30.39,30.33,30.28,10,10,10,10,1,,0.00,0,,218
2013-3-29,68,52,36,45,37,33,89,60,32,30.31,30.24,30.17,10,10,10,17,4,24,0.00,5,,141
2013-3-30,68,56,45,55,51,42,96,85,55,30.19,30.08,29.98,10,6,2,9,4,,0.80,7,Rain,175
2013-3-31,64,60,55,59,56,54,100,93,75,29.97,29.93,29.88,10,7,1,12,6,,0.36,8,Rain,226